Time;durP1;ratioP1;P1;durP2;ratioP2;P2;SDS_P1;SDS_P2;PMS_P1;PMS_P2;Temp;Humidity;BMP_temperature;BMP_pressure;BME280_temperature;BME280_humidity;BME280_pressure;Samples;Min_cycle;Max_cycle;Signal;HPM_P1;HPM_P2
2023/03/13 00:01:44;;;;;;;9.53;2.80;;;24.60;62.00;;;;;;4995668;28;20186;-64
2023/03/13 00:04:11;;;;;;;10.13;2.87;;;24.70;61.90;;;;;;4995266;28;20528;-66
2023/03/13 00:06:39;;;;;;;6.30;2.10;;;24.50;60.90;;;;;;4977051;28;20179;-66
2023/03/13 00:09:10;;;;;;;12.20;3.90;;;24.50;61.30;;;;;;4995462;28;20253;-65
2023/03/13 00:11:37;;;;;;;7.20;1.90;;;24.40;62.50;;;;;;4994466;28;20213;-69
2023/03/13 00:14:06;;;;;;;10.43;2.57;;;24.40;62.20;;;;;;4994731;28;20230;-72
2023/03/13 00:16:34;;;;;;;10.07;1.93;;;24.50;61.50;;;;;;4993742;28;20244;-72
2023/03/13 00:19:01;;;;;;;7.93;1.87;;;24.60;61.30;;;;;;4999807;28;20622;-66
2023/03/13 00:21:29;;;;;;;9.87;4.07;;;24.40;61.90;;;;;;5003902;28;20545;-65
2023/03/13 00:23:58;;;;;;;8.67;2.80;;;24.60;61.90;;;;;;4998851;28;20633;-73
2023/03/13 00:26:27;;;;;;;10.20;2.37;;;24.70;61.40;;;;;;5009101;28;20185;-67
2023/03/13 00:28:54;;;;;;;8.40;1.90;;;24.80;61.10;;;;;;5012308;28;20173;-75
2023/03/13 00:31:28;;;;;;;5.47;1.70;;;25.00;60.20;;;;;;5014790;28;20173;-74
2023/03/13 00:33:59;;;;;;;10.73;3.30;;;25.10;59.70;;;;;;4998802;28;20185;-76
2023/03/13 00:36:32;;;;;;;8.30;2.73;;;24.90;59.60;;;;;;4998991;28;20560;-74
2023/03/13 00:38:59;;;;;;;8.53;3.30;;;25.00;59.20;;;;;;4994691;28;20218;-79
2023/03/13 00:41:31;;;;;;;5.40;1.53;;;25.30;58.40;;;;;;4996161;28;20189;-65
2023/03/13 00:43:59;;;;;;;7.73;1.93;;;25.30;58.20;;;;;;4977081;28;20189;-71
2023/03/13 00:46:28;;;;;;;8.53;1.47;;;25.30;58.30;;;;;;5002795;28;20186;-65
2023/03/13 00:48:56;;;;;;;6.40;1.43;;;25.50;57.30;;;;;;4995211;28;20174;-66
2023/03/13 00:51:25;;;;;;;5.63;1.70;;;25.90;55.70;;;;;;5014143;28;20232;-66
2023/03/13 00:53:54;;;;;;;6.50;2.03;;;26.00;54.80;;;;;;4996272;28;20177;-74
2023/03/13 00:56:21;;;;;;;11.30;2.37;;;26.00;56.20;;;;;;5010109;28;20177;-69
2023/03/13 00:58:49;;;;;;;3.80;1.53;;;26.20;55.80;;;;;;5002075;28;20275;-69
2023/03/13 01:01:17;;;;;;;6.47;2.00;;;26.80;54.50;;;;;;5014595;28;20188;-73
2023/03/13 01:03:49;;;;;;;4.57;1.40;;;26.30;53.70;;;;;;5009634;28;20181;-70
2023/03/13 01:06:20;;;;;;;9.93;1.97;;;26.10;54.70;;;;;;4997204;28;20194;-76
2023/03/13 01:08:49;;;;;;;7.07;1.83;;;25.70;56.80;;;;;;4999346;28;20177;-74
2023/03/13 01:11:19;;;;;;;5.80;1.50;;;25.40;57.60;;;;;;5002387;28;20235;-66
2023/03/13 01:13:47;;;;;;;7.10;1.60;;;25.50;58.30;;;;;;4994575;28;20275;-70
2023/03/13 01:16:19;;;;;;;5.13;1.53;;;25.90;57.00;;;;;;4994258;28;20273;-68
2023/03/13 01:18:50;;;;;;;7.73;1.40;;;26.30;55.50;;;;;;4996894;28;20204;-66
2023/03/13 01:21:19;;;;;;;6.90;1.60;;;26.40;55.60;;;;;;4993003;28;20182;-64
2023/03/13 01:23:48;;;;;;;6.67;1.60;;;26.30;55.70;;;;;;4994941;28;20225;-68
2023/03/13 01:26:16;;;;;;;4.90;1.50;;;26.20;56.90;;;;;;5000735;28;20643;-69
2023/03/13 01:28:43;;;;;;;15.40;1.77;;;26.60;55.10;;;;;;4996723;28;20185;-69
2023/03/13 01:31:21;;;;;;;5.40;1.90;;;26.40;54.40;;;;;;4996769;28;20174;-70
2023/03/13 01:33:51;;;;;;;7.20;1.43;;;26.40;54.30;;;;;;4992439;28;20212;-66
2023/03/13 01:36:18;;;;;;;6.97;1.80;;;26.40;54.70;;;;;;4991080;28;20209;-69
2023/03/13 01:38:51;;;;;;;5.80;1.40;;;26.50;54.90;;;;;;4981715;28;20660;-69
2023/03/13 01:41:20;;;;;;;4.93;1.70;;;26.80;54.10;;;;;;4992318;28;20190;-71
2023/03/13 01:43:48;;;;;;;7.93;1.83;;;27.10;52.60;;;;;;4993709;28;20181;-71
2023/03/13 01:46:17;;;;;;;6.70;1.40;;;27.30;52.30;;;;;;5009794;28;20308;-72
2023/03/13 01:48:44;;;;;;;7.77;1.90;;;27.50;50.70;;;;;;5013244;28;20177;-68
2023/03/13 01:51:39;;;;;;;10.27;1.67;;;27.20;51.70;;;;;;5013156;28;20186;-65
2023/03/13 01:54:12;;;;;;;5.33;1.43;;;26.80;54.10;;;;;;5013129;28;20181;-68
2023/03/13 01:56:56;;;;;;;14.57;1.83;;;26.60;54.00;;;;;;5013168;28;20177;-65
2023/03/13 01:59:29;;;;;;;5.73;1.87;;;26.80;53.50;;;;;;5013201;28;20216;-68
2023/03/13 02:02:01;;;;;;;7.33;1.80;;;26.60;54.00;;;;;;5013724;28;20179;-65
2023/03/13 02:04:35;;;;;;;8.87;1.93;;;26.10;55.10;;;;;;5013071;28;20173;-65
2023/03/13 02:07:08;;;;;;;8.93;1.40;;;25.80;55.90;;;;;;5013403;28;20177;-66
2023/03/13 02:09:39;;;;;;;7.80;1.73;;;25.70;56.40;;;;;;5013026;28;20537;-66
2023/03/13 02:12:14;;;;;;;7.00;1.80;;;25.70;56.50;;;;;;4994926;28;20185;-66
2023/03/13 02:14:44;;;;;;;9.90;1.83;;;25.70;56.20;;;;;;5007432;28;20546;-66
2023/03/13 02:17:13;;;;;;;4.93;1.10;;;25.50;56.90;;;;;;5013012;28;20185;-66
2023/03/13 02:19:45;;;;;;;5.73;1.97;;;25.80;56.40;;;;;;5012936;28;20201;-65
2023/03/13 02:22:34;;;;;;;5.33;1.53;;;25.60;56.10;;;;;;5012887;28;20192;-65
2023/03/13 02:25:15;;;;;;;7.57;1.70;;;25.60;57.00;;;;;;5013071;28;20177;-68
2023/03/13 02:27:45;;;;;;;9.80;1.33;;;25.70;56.20;;;;;;4995714;28;20197;-66
2023/03/13 02:30:14;;;;;;;8.83;1.87;;;25.70;56.60;;;;;;4993262;28;20624;-64
2023/03/13 02:32:42;;;;;;;10.03;1.80;;;25.80;55.80;;;;;;5012790;28;20174;-67
2023/03/13 02:35:13;;;;;;;6.60;1.90;;;25.80;54.90;;;;;;5012998;28;20181;-71
2023/03/13 02:37:47;;;;;;;10.60;2.10;;;26.00;55.20;;;;;;5012164;28;20648;-72
2023/03/13 02:40:19;;;;;;;9.07;1.97;;;25.90;56.00;;;;;;5012531;28;20802;-75
2023/03/13 02:42:48;;;;;;;6.50;1.93;;;25.90;55.70;;;;;;5008487;28;20188;-73
2023/03/13 02:45:17;;;;;;;4.97;1.57;;;25.90;55.50;;;;;;5004567;28;20184;-69
2023/03/13 02:47:44;;;;;;;6.73;1.47;;;25.80;55.00;;;;;;5012093;28;20208;-71
2023/03/13 02:50:13;;;;;;;5.80;1.80;;;25.80;52.50;;;;;;5012591;28;20256;-70
2023/03/13 02:52:55;;;;;;;5.57;1.77;;;25.90;53.30;;;;;;5012281;28;20186;-68
2023/03/13 02:55:32;;;;;;;9.20;2.07;;;25.60;54.10;;;;;;5012415;28;20177;-73
2023/03/13 02:57:59;;;;;;;8.93;1.73;;;25.40;55.90;;;;;;5011946;28;20169;-71
2023/03/13 03:00:26;;;;;;;10.20;1.57;;;25.50;56.90;;;;;;5012483;28;20221;-73
2023/03/13 03:02:55;;;;;;;7.20;1.50;;;25.70;56.90;;;;;;5012544;28;20256;-70
2023/03/13 03:05:22;;;;;;;5.23;1.53;;;25.60;56.80;;;;;;4994677;28;20212;-75
2023/03/13 03:07:50;;;;;;;7.27;3.73;;;25.30;56.00;;;;;;5012079;28;20567;-73
2023/03/13 03:10:19;;;;;;;4.23;2.10;;;25.30;56.00;;;;;;5012263;28;20173;-76
2023/03/13 03:12:46;;;;;;;10.40;5.03;;;25.50;55.40;;;;;;5012146;28;20271;-74
2023/03/13 03:15:13;;;;;;;8.77;2.03;;;25.80;53.70;;;;;;5012135;28;20177;-72
2023/03/13 03:17:41;;;;;;;8.67;2.10;;;25.60;54.10;;;;;;5011680;28;20173;-74
2023/03/13 03:20:10;;;;;;;10.47;1.77;;;25.40;55.20;;;;;;5012046;28;20209;-70
2023/03/13 03:22:42;;;;;;;5.40;1.63;;;25.50;55.00;;;;;;5011825;28;20192;-70
2023/03/13 03:25:09;;;;;;;6.40;1.73;;;25.50;57.00;;;;;;5012330;28;20186;-74
2023/03/13 03:27:37;;;;;;;7.00;2.13;;;25.50;58.20;;;;;;5011457;28;20196;-66
2023/03/13 03:30:06;;;;;;;11.47;2.10;;;25.40;58.60;;;;;;5012393;28;20646;-73
2023/03/13 03:32:33;;;;;;;8.97;2.17;;;25.10;61.10;;;;;;5013706;28;20655;-71
2023/03/13 03:35:00;;;;;;;8.47;2.23;;;24.90;62.70;;;;;;5015450;28;20232;-69
2023/03/13 03:37:28;;;;;;;7.13;1.90;;;24.60;63.00;;;;;;4998532;28;20186;-68
2023/03/13 03:39:58;;;;;;;6.53;2.03;;;24.10;62.90;;;;;;4976773;28;20284;-69
2023/03/13 03:42:25;;;;;;;14.80;2.20;;;24.00;63.00;;;;;;4986158;28;20228;-70
2023/03/13 03:44:52;;;;;;;8.80;2.17;;;23.90;62.60;;;;;;4999138;28;20212;-68
2023/03/13 03:47:20;;;;;;;7.93;2.20;;;24.00;62.50;;;;;;4991376;28;20531;-67
2023/03/13 03:49:47;;;;;;;5.70;1.90;;;24.00;62.40;;;;;;5015601;28;20197;-67
2023/03/13 03:52:14;;;;;;;9.10;2.40;;;24.20;62.30;;;;;;5015089;28;20181;-71
2023/03/13 03:54:42;;;;;;;9.80;4.17;;;24.20;61.80;;;;;;4997998;28;20308;-66
2023/03/13 03:57:09;;;;;;;14.53;4.17;;;24.30;61.50;;;;;;5015135;28;20177;-67
2023/03/13 03:59:37;;;;;;;9.00;3.33;;;24.10;61.80;;;;;;5014891;28;20241;-67
2023/03/13 04:02:04;;;;;;;8.90;2.47;;;24.30;61.80;;;;;;5014337;28;20213;-68
2023/03/13 04:04:31;;;;;;;9.00;2.30;;;24.40;61.20;;;;;;5014894;28;20181;-69
2023/03/13 04:06:59;;;;;;;8.33;2.40;;;24.50;60.40;;;;;;5000467;28;20177;-68
2023/03/13 04:09:26;;;;;;;9.40;1.90;;;24.70;60.00;;;;;;5015077;28;20557;-68
2023/03/13 04:11:53;;;;;;;7.57;2.20;;;24.80;59.80;;;;;;5015246;28;20628;-71
2023/03/13 04:14:21;;;;;;;5.63;1.53;;;24.70;58.80;;;;;;5014680;28;20696;-67
2023/03/13 04:16:48;;;;;;;10.53;1.87;;;24.80;59.40;;;;;;5014730;28;20192;-70
2023/03/13 04:19:15;;;;;;;8.53;2.13;;;24.70;59.20;;;;;;5015191;28;20703;-67
2023/03/13 04:21:43;;;;;;;8.43;2.93;;;24.80;59.30;;;;;;5014912;28;20247;-69
2023/03/13 04:24:10;;;;;;;9.87;4.03;;;25.10;58.90;;;;;;5014930;28;20187;-69
2023/03/13 04:26:37;;;;;;;11.60;4.07;;;25.20;59.00;;;;;;5015342;28;20311;-69
2023/03/13 04:29:05;;;;;;;13.33;9.17;;;25.50;57.90;;;;;;5014509;28;20218;-69
2023/03/13 04:31:33;;;;;;;10.23;5.07;;;25.40;58.00;;;;;;5014568;28;20185;-68
2023/03/13 04:34:00;;;;;;;7.97;1.87;;;25.30;58.20;;;;;;5014952;28;20606;-65
2023/03/13 04:36:27;;;;;;;7.87;1.47;;;25.10;59.00;;;;;;5014773;28;20592;-68
2023/03/13 04:38:54;;;;;;;6.53;1.87;;;25.00;59.80;;;;;;5014295;28;20236;-66
2023/03/13 04:41:22;;;;;;;7.83;1.47;;;25.10;59.00;;;;;;5014475;28;20197;-66
2023/03/13 04:43:49;;;;;;;8.03;1.70;;;25.00;59.00;;;;;;5013109;28;20704;-67
2023/03/13 04:46:17;;;;;;;9.37;1.60;;;25.10;58.80;;;;;;5014551;28;20193;-67
2023/03/13 04:48:45;;;;;;;9.17;2.10;;;25.10;59.10;;;;;;5014521;28;20196;-67
2023/03/13 04:51:13;;;;;;;5.77;1.60;;;25.30;57.70;;;;;;5014796;28;20181;-66
2023/03/13 04:53:40;;;;;;;10.37;2.03;;;25.30;57.20;;;;;;5013992;28;20176;-66
2023/03/13 04:56:08;;;;;;;9.37;2.00;;;25.20;57.80;;;;;;5014195;28;20177;-65
2023/03/13 04:58:35;;;;;;;9.43;2.13;;;25.40;58.10;;;;;;5013894;28;20173;-66
2023/03/13 05:01:02;;;;;;;7.97;1.53;;;25.10;56.20;;;;;;5014285;28;20205;-71
2023/03/13 05:03:29;;;;;;;10.93;1.63;;;25.20;57.30;;;;;;5013942;28;20537;-67
2023/03/13 05:05:57;;;;;;;9.73;2.37;;;25.40;57.40;;;;;;5016650;28;20331;-71
2023/03/13 05:08:24;;;;;;;8.13;2.07;;;25.30;58.00;;;;;;5013795;28;20173;-67
2023/03/13 05:10:51;;;;;;;8.83;1.37;;;25.10;58.80;;;;;;5013899;28;20181;-74
2023/03/13 05:13:19;;;;;;;7.77;2.00;;;25.30;57.50;;;;;;5013267;28;20241;-76
2023/03/13 05:15:46;;;;;;;5.53;1.63;;;25.40;56.80;;;;;;5012955;28;20212;-72
2023/03/13 05:18:13;;;;;;;10.20;1.60;;;25.30;57.50;;;;;;4981603;28;20174;-75
2023/03/13 05:20:41;;;;;;;8.40;1.50;;;25.30;58.40;;;;;;5013749;28;20215;-77
2023/03/13 05:23:08;;;;;;;5.40;1.67;;;25.30;59.20;;;;;;5013708;28;20169;-70
2023/03/13 05:25:35;;;;;;;6.90;1.47;;;25.30;59.40;;;;;;5013508;28;20644;-69
2023/03/13 05:28:02;;;;;;;5.83;1.87;;;25.30;58.50;;;;;;5013654;28;20178;-71
2023/03/13 05:30:30;;;;;;;8.57;1.53;;;25.20;58.70;;;;;;4996554;28;20289;-68
2023/03/13 05:32:57;;;;;;;7.67;1.87;;;25.30;58.10;;;;;;5013507;28;20220;-75
2023/03/13 05:35:24;;;;;;;7.27;1.90;;;25.00;59.50;;;;;;5013509;28;20182;-71
2023/03/13 05:37:52;;;;;;;9.90;2.00;;;25.00;59.30;;;;;;5003667;28;20329;-73
2023/03/13 05:40:19;;;;;;;11.20;1.77;;;24.80;59.30;;;;;;5013382;28;20216;-72
2023/03/13 05:42:47;;;;;;;5.83;1.50;;;24.80;59.60;;;;;;5013571;28;20178;-71
2023/03/13 05:45:14;;;;;;;8.63;3.97;;;24.70;60.10;;;;;;4995839;28;20235;-75
2023/03/13 05:47:42;;;;;;;10.83;4.10;;;24.60;60.20;;;;;;5012876;28;20217;-73
2023/03/13 05:50:09;;;;;;;4.00;1.87;;;24.40;60.50;;;;;;5013187;28;20262;-70
2023/03/13 05:52:37;;;;;;;5.00;1.47;;;24.30;60.00;;;;;;5013343;28;20315;-73
2023/03/13 05:55:04;;;;;;;10.53;2.10;;;24.20;61.00;;;;;;5012697;28;20220;-74
2023/03/13 05:57:32;;;;;;;12.97;2.20;;;24.10;61.90;;;;;;5013176;28;20264;-75
2023/03/13 05:59:59;;;;;;;6.70;1.60;;;24.10;62.10;;;;;;5012847;28;20687;-70
2023/03/13 06:02:26;;;;;;;7.13;1.90;;;24.20;61.70;;;;;;5001453;28;20376;-73
2023/03/13 06:04:54;;;;;;;10.40;1.80;;;24.40;61.40;;;;;;5005239;28;20300;-74
2023/03/13 06:07:21;;;;;;;10.57;1.80;;;24.70;60.50;;;;;;5012639;28;20658;-75
2023/03/13 06:09:48;;;;;;;10.40;2.13;;;25.10;59.40;;;;;;5012666;28;20185;-73
2023/03/13 06:12:16;;;;;;;7.00;2.10;;;25.50;58.60;;;;;;5012210;28;20177;-74
2023/03/13 06:14:43;;;;;;;9.27;1.93;;;25.60;58.20;;;;;;5013056;28;20197;-76
2023/03/13 06:17:11;;;;;;;9.53;1.60;;;25.40;57.70;;;;;;5012596;28;20173;-75
2023/03/13 06:19:38;;;;;;;6.80;1.67;;;25.40;58.10;;;;;;5012816;28;20212;-73
2023/03/13 06:22:05;;;;;;;10.57;2.10;;;25.30;58.10;;;;;;5000543;28;20182;-72
2023/03/13 06:24:33;;;;;;;9.67;2.13;;;24.90;59.50;;;;;;4992605;28;20326;-68
2023/03/13 06:27:00;;;;;;;6.60;1.67;;;24.90;59.80;;;;;;4992911;28;20228;-73
2023/03/13 06:29:27;;;;;;;10.47;2.00;;;24.70;60.20;;;;;;4992289;28;20304;-74
2023/03/13 06:31:55;;;;;;;7.70;1.23;;;24.30;61.10;;;;;;4991930;28;20727;-71
2023/03/13 06:34:22;;;;;;;10.67;1.73;;;24.20;61.70;;;;;;4992868;28;20233;-75
2023/03/13 06:36:49;;;;;;;8.83;1.47;;;24.20;61.50;;;;;;4992248;28;20180;-74
2023/03/13 06:39:17;;;;;;;12.40;2.23;;;24.10;61.80;;;;;;4992073;28;20217;-72
2023/03/13 06:41:44;;;;;;;8.43;2.23;;;24.10;62.20;;;;;;4991612;28;20806;-71
2023/03/13 06:44:11;;;;;;;6.53;1.67;;;23.90;62.80;;;;;;4991316;28;20192;-72
2023/03/13 06:46:38;;;;;;;12.20;2.07;;;23.90;62.70;;;;;;4987848;28;20229;-66
2023/03/13 06:49:06;;;;;;;7.97;1.77;;;23.90;62.20;;;;;;4992636;28;20189;-66
2023/03/13 06:51:33;;;;;;;7.23;2.10;;;23.90;62.60;;;;;;4992556;28;20220;-67
2023/03/13 06:54:02;;;;;;;10.60;2.07;;;23.90;62.90;;;;;;4990968;28;20574;-66
2023/03/13 06:56:30;;;;;;;8.23;1.80;;;23.80;63.30;;;;;;4992074;28;20230;-70
2023/03/13 06:58:57;;;;;;;11.13;2.10;;;23.70;63.30;;;;;;4992502;28;20201;-66
2023/03/13 07:01:24;;;;;;;9.43;2.00;;;23.60;63.70;;;;;;4991527;28;20189;-66
2023/03/13 07:03:51;;;;;;;8.07;2.17;;;23.60;63.70;;;;;;4991196;28;20242;-66
2023/03/13 07:06:19;;;;;;;12.67;2.40;;;23.50;64.40;;;;;;4990262;28;20520;-66
2023/03/13 07:08:47;;;;;;;8.93;2.20;;;23.50;64.90;;;;;;4995941;28;20202;-67
2023/03/13 07:11:15;;;;;;;8.00;2.07;;;23.60;65.40;;;;;;4996363;28;20530;-67
2023/03/13 07:13:42;;;;;;;5.87;1.60;;;23.60;65.40;;;;;;4995489;28;20693;-68
2023/03/13 07:16:12;;;;;;;9.47;2.37;;;23.50;66.00;;;;;;4996529;28;20221;-64
2023/03/13 07:18:43;;;;;;;4.60;1.60;;;23.50;66.50;;;;;;4996669;28;20530;-66
2023/03/13 07:21:11;;;;;;;9.67;2.20;;;23.40;66.80;;;;;;4994544;28;20194;-65
2023/03/13 07:23:39;;;;;;;6.43;1.80;;;23.40;66.80;;;;;;4996010;28;20213;-66
2023/03/13 07:26:13;;;;;;;7.67;2.03;;;23.30;67.60;;;;;;4994669;28;20269;-65
2023/03/13 07:28:41;;;;;;;11.60;1.77;;;23.30;68.10;;;;;;4995087;28;20269;-65
2023/03/13 07:31:12;;;;;;;9.70;2.43;;;23.30;68.40;;;;;;4995146;28;20186;-65
2023/03/13 07:33:40;;;;;;;9.03;1.70;;;23.20;68.90;;;;;;4996238;28;20178;-66
2023/03/13 07:36:08;;;;;;;8.37;2.10;;;23.10;69.60;;;;;;4995846;28;20269;-75
2023/03/13 07:38:35;;;;;;;10.60;2.23;;;23.10;69.90;;;;;;4991133;28;20222;-74
2023/03/13 07:41:04;;;;;;;12.20;2.43;;;23.10;69.80;;;;;;4993091;28;20612;-76
2023/03/13 07:43:31;;;;;;;9.70;2.37;;;23.10;69.80;;;;;;4995360;28;20269;-73
2023/03/13 07:46:02;;;;;;;14.50;2.77;;;23.00;69.80;;;;;;4995357;28;20178;-70
2023/03/13 07:48:31;;;;;;;12.70;2.33;;;23.00;70.10;;;;;;4991515;28;20182;-74
2023/03/13 07:51:00;;;;;;;8.27;2.30;;;23.00;69.90;;;;;;4995404;28;20181;-72
2023/03/13 07:53:28;;;;;;;17.13;2.53;;;23.00;69.80;;;;;;4995702;28;20650;-73
2023/03/13 07:56:04;;;;;;;11.03;2.43;;;23.00;69.60;;;;;;4995711;28;20182;-75
2023/03/13 07:58:34;;;;;;;10.23;2.00;;;23.10;69.70;;;;;;4995688;28;20201;-69
2023/03/13 08:01:07;;;;;;;8.97;1.83;;;23.00;69.20;;;;;;4995754;28;20196;-75
2023/03/13 08:03:35;;;;;;;5.87;1.77;;;23.00;69.20;;;;;;4995712;28;20671;-70
2023/03/13 08:06:10;;;;;;;8.60;2.20;;;22.90;69.00;;;;;;4995690;28;20198;-73
2023/03/13 08:08:39;;;;;;;8.33;1.90;;;22.90;69.60;;;;;;4992537;28;20268;-75
2023/03/13 08:11:12;;;;;;;9.20;2.03;;;22.90;70.20;;;;;;4995928;28;20675;-76
2023/03/13 08:13:40;;;;;;;7.80;1.63;;;22.80;70.30;;;;;;4995262;28;20307;-73
2023/03/13 08:16:15;;;;;;;9.90;1.80;;;22.80;70.20;;;;;;4995392;28;20225;-76
2023/03/13 08:18:44;;;;;;;8.10;1.77;;;22.80;70.70;;;;;;4986841;28;20267;-76
2023/03/13 08:21:14;;;;;;;8.27;2.07;;;22.80;71.10;;;;;;4993754;28;20188;-76
2023/03/13 08:23:42;;;;;;;12.57;2.07;;;22.80;71.20;;;;;;5000833;28;20719;-74
2023/03/13 08:26:15;;;;;;;9.03;2.00;;;22.80;71.80;;;;;;5008461;28;20556;-66
2023/03/13 08:28:44;;;;;;;18.63;3.33;;;22.80;72.10;;;;;;4976270;28;20185;-67
2023/03/13 08:31:14;;;;;;;8.33;2.63;;;22.80;72.90;;;;;;5004078;28;20189;-67
2023/03/13 08:33:43;;;;;;;13.07;2.30;;;22.80;73.50;;;;;;5001804;28;20190;-66
2023/03/13 08:36:16;;;;;;;13.67;2.60;;;22.80;73.60;;;;;;4987940;28;20221;-69
2023/03/13 08:38:45;;;;;;;11.00;2.67;;;22.70;73.80;;;;;;4996302;28;20332;-66
2023/03/13 08:41:14;;;;;;;11.27;2.43;;;22.70;74.20;;;;;;4994077;28;20673;-66
2023/03/13 08:43:42;;;;;;;10.83;2.63;;;22.60;74.30;;;;;;4994392;28;20185;-68
2023/03/13 08:46:10;;;;;;;9.13;2.20;;;22.60;74.70;;;;;;4993398;28;20186;-67
2023/03/13 08:48:37;;;;;;;10.90;2.43;;;22.60;75.00;;;;;;4991313;28;20232;-67
2023/03/13 08:51:10;;;;;;;9.60;2.67;;;22.50;75.30;;;;;;4984884;28;20186;-69
2023/03/13 08:53:39;;;;;;;10.17;2.23;;;22.60;75.90;;;;;;4992504;28;20208;-67
2023/03/13 08:56:07;;;;;;;14.13;2.30;;;22.50;76.30;;;;;;4991810;28;20197;-67
2023/03/13 08:58:35;;;;;;;13.20;2.73;;;22.50;76.00;;;;;;4989397;28;20189;-71
2023/03/13 09:01:07;;;;;;;15.00;2.73;;;22.30;75.30;;;;;;4990444;28;20190;-69
2023/03/13 09:03:35;;;;;;;10.60;2.00;;;22.30;74.00;;;;;;4983204;28;20228;-66
2023/03/13 09:06:03;;;;;;;10.47;1.90;;;22.30;73.00;;;;;;4992779;28;20209;-66
2023/03/13 09:08:31;;;;;;;11.13;2.30;;;22.30;72.00;;;;;;4986832;28;20547;-68
2023/03/13 09:11:11;;;;;;;7.87;1.80;;;22.30;70.60;;;;;;4991589;28;20179;-65
2023/03/13 09:13:42;;;;;;;11.47;2.20;;;22.50;69.90;;;;;;4993635;28;20332;-67
2023/03/13 09:16:23;;;;;;;7.97;2.10;;;22.40;69.30;;;;;;4992776;28;20184;-66
2023/03/13 09:18:51;;;;;;;9.77;2.13;;;22.50;68.40;;;;;;4989484;28;20178;-70
2023/03/13 09:21:26;;;;;;;9.80;2.07;;;22.60;68.30;;;;;;4988541;28;20197;-68
2023/03/13 09:23:54;;;;;;;8.80;1.80;;;22.60;68.60;;;;;;4991448;28;20272;-65
2023/03/13 09:26:22;;;;;;;8.87;1.73;;;22.70;68.70;;;;;;4992173;28;20193;-69
2023/03/13 09:28:50;;;;;;;9.67;1.97;;;22.60;68.50;;;;;;4992168;28;20186;-66
2023/03/13 09:31:23;;;;;;;8.73;2.23;;;22.70;68.60;;;;;;4990669;28;20276;-67
2023/03/13 09:33:51;;;;;;;7.57;1.57;;;22.70;68.80;;;;;;4990832;28;20178;-70
2023/03/13 09:36:19;;;;;;;13.83;2.23;;;22.70;68.70;;;;;;4992745;28;20704;-68
2023/03/13 09:38:47;;;;;;;10.77;2.07;;;22.60;68.60;;;;;;4990726;28;20217;-69
2023/03/13 09:41:17;;;;;;;8.63;2.03;;;22.70;68.90;;;;;;4986181;28;20280;-71
2023/03/13 09:44:30;;;;;;;9.93;1.93;;;22.60;68.80;;;;;;4993826;28;20239;-66
2023/03/13 09:47:10;;;;;;;10.97;1.90;;;22.60;69.00;;;;;;4974689;28;20222;-67
2023/03/13 09:49:53;;;;;;;9.10;1.80;;;22.60;68.80;;;;;;4991597;28;20177;-66
2023/03/13 09:52:29;;;;;;;14.03;2.23;;;22.60;69.00;;;;;;4991677;28;20514;-68
2023/03/13 09:55:04;;;;;;;11.23;1.80;;;22.60;69.20;;;;;;4994028;28;20185;-67
2023/03/13 09:57:36;;;;;;;10.47;2.03;;;22.60;69.40;;;;;;4992236;28;20178;-68
2023/03/13 10:00:30;;;;;;;10.20;2.30;;;22.50;69.50;;;;;;4993680;28;20669;-67
2023/03/13 10:03:20;;;;;;;11.53;1.57;;;22.40;69.30;;;;;;4992663;28;20556;-65
2023/03/13 10:05:55;;;;;;;10.43;2.20;;;22.40;69.10;;;;;;4991620;28;20185;-69
2023/03/13 10:08:25;;;;;;;9.63;1.83;;;22.30;68.70;;;;;;4993872;28;20197;-68
2023/03/13 10:11:15;;;;;;;11.67;2.10;;;22.30;68.60;;;;;;4992061;28;20190;-67
2023/03/13 10:13:51;;;;;;;9.63;2.03;;;22.30;68.40;;;;;;4992192;28;20291;-70
2023/03/13 10:16:26;;;;;;;8.60;2.20;;;22.30;68.60;;;;;;4995249;28;20189;-76
2023/03/13 10:18:57;;;;;;;10.90;1.73;;;22.30;68.50;;;;;;4982465;28;20205;-76
2023/03/13 10:21:33;;;;;;;10.10;2.30;;;22.30;68.90;;;;;;4991753;28;20240;-75
2023/03/13 10:24:19;;;;;;;11.97;2.37;;;22.20;68.90;;;;;;4992662;28;20617;-74
2023/03/13 10:26:46;;;;;;;10.07;2.03;;;22.20;68.90;;;;;;4992784;28;20174;-75
2023/03/13 10:29:25;;;;;;;10.53;2.13;;;22.20;68.80;;;;;;4993100;28;20265;-77
2023/03/13 10:32:01;;;;;;;10.37;1.73;;;22.20;68.10;;;;;;4986633;28;20185;-77
2023/03/13 10:34:59;;;;;;;5.77;1.60;;;22.10;67.80;;;;;;4992752;28;20202;-77
2023/03/13 10:37:40;;;;;;;11.67;1.80;;;22.10;67.90;;;;;;4985133;28;20225;-73
2023/03/13 10:40:25;;;;;;;10.93;1.80;;;22.20;68.00;;;;;;4990863;28;20217;-76
2023/03/13 10:42:59;;;;;;;10.50;2.20;;;22.10;68.20;;;;;;4993129;28;20181;-76
2023/03/13 10:45:31;;;;;;;11.47;2.50;;;22.10;67.60;;;;;;4992234;28;20215;-76
2023/03/13 10:48:13;;;;;;;12.17;2.77;;;22.10;67.50;;;;;;4990082;28;20185;-70
2023/03/13 10:50:46;;;;;;;10.97;2.17;;;22.00;67.50;;;;;;4991909;28;20197;-76
2023/03/13 10:53:36;;;;;;;11.37;1.93;;;22.00;67.10;;;;;;4987780;28;20197;-76
2023/03/13 10:56:25;;;;;;;10.80;2.40;;;22.00;67.20;;;;;;5002981;28;20184;-73
2023/03/13 10:58:53;;;;;;;9.70;2.03;;;22.10;67.60;;;;;;4982342;28;20170;-77
2023/03/13 11:01:40;;;;;;;14.33;2.17;;;22.00;67.50;;;;;;5005500;28;20188;-77
2023/03/13 11:04:26;;;;;;;9.63;1.93;;;22.00;67.80;;;;;;4993257;28;20225;-76
2023/03/13 11:07:01;;;;;;;9.87;1.83;;;22.10;67.40;;;;;;5003556;28;20178;-75
2023/03/13 11:09:29;;;;;;;7.33;2.20;;;22.00;67.30;;;;;;5011930;28;20271;-76
2023/03/13 11:12:07;;;;;;;15.43;2.47;;;22.00;67.50;;;;;;5009423;28;20257;-74
2023/03/13 11:14:35;;;;;;;6.93;1.70;;;22.10;67.60;;;;;;5012290;28;20208;-76
2023/03/13 11:17:11;;;;;;;8.97;1.80;;;22.00;67.80;;;;;;5001271;28;20311;-76
2023/03/13 11:19:56;;;;;;;7.07;1.67;;;22.00;67.90;;;;;;5009074;28;20220;-67
2023/03/13 11:22:34;;;;;;;8.57;2.10;;;22.00;68.10;;;;;;5002161;28;20193;-76
2023/03/13 11:25:21;;;;;;;11.03;2.20;;;22.00;68.40;;;;;;5003351;28;20682;-76
2023/03/13 11:28:19;;;;;;;9.53;2.20;;;22.00;68.60;;;;;;4990705;28;20268;-75
2023/03/13 11:30:57;;;;;;;10.23;1.77;;;21.90;68.80;;;;;;5002067;28;20185;-75
2023/03/13 11:33:51;;;;;;;11.63;2.40;;;21.90;69.00;;;;;;5007070;28;20186;-73
2023/03/13 11:36:54;;;;;;;11.87;2.50;;;21.90;69.20;;;;;;5000866;28;20247;-76
2023/03/13 11:39:58;;;;;;;11.67;2.30;;;21.90;69.00;;;;;;4985952;28;20209;-67
2023/03/13 11:42:44;;;;;;;8.83;2.00;;;21.80;69.00;;;;;;5009588;28;20184;-74
2023/03/13 11:45:42;;;;;;;13.13;2.33;;;21.80;69.10;;;;;;5003431;28;20193;-74
2023/03/13 11:48:34;;;;;;;10.30;2.30;;;21.80;69.30;;;;;;4992159;28;20252;-75
2023/03/13 11:51:12;;;;;;;11.80;1.70;;;21.80;69.30;;;;;;5011086;28;20201;-77
2023/03/13 11:54:01;;;;;;;10.83;2.40;;;21.80;69.40;;;;;;5001325;28;20213;-77
2023/03/13 11:56:41;;;;;;;9.00;1.90;;;21.80;69.40;;;;;;4993316;28;20190;-76
2023/03/13 11:59:30;;;;;;;8.47;2.20;;;21.80;69.20;;;;;;4995172;28;20209;-74
2023/03/13 12:02:20;;;;;;;14.93;2.33;;;21.80;69.40;;;;;;4994762;28;20184;-75
2023/03/13 12:05:00;;;;;;;12.37;2.47;;;21.80;69.50;;;;;;4994910;28;20192;-68
2023/03/13 12:07:47;;;;;;;10.10;2.53;;;21.80;69.60;;;;;;4995595;28;20200;-66
2023/03/13 12:10:36;;;;;;;10.03;2.50;;;21.80;69.90;;;;;;4995765;28;20240;-66
2023/03/13 12:13:19;;;;;;;16.47;2.13;;;21.90;70.10;;;;;;4995574;28;20218;-67
2023/03/13 12:15:51;;;;;;;12.33;2.53;;;21.90;70.20;;;;;;4994526;28;20224;-66
2023/03/13 12:18:30;;;;;;;8.53;2.10;;;21.90;70.30;;;;;;4995308;28;20583;-67
2023/03/13 12:21:32;;;;;;;13.67;2.47;;;21.90;70.50;;;;;;4994569;28;20233;-66
2023/03/13 12:24:21;;;;;;;7.20;1.93;;;21.90;70.70;;;;;;4987916;28;20269;-66
2023/03/13 12:27:24;;;;;;;8.83;2.40;;;21.90;71.10;;;;;;4995692;28;20582;-66
2023/03/13 12:30:00;;;;;;;9.73;2.13;;;22.00;71.20;;;;;;4993595;28;20211;-66
2023/03/13 12:32:36;;;;;;;14.53;2.60;;;21.90;71.40;;;;;;5013249;28;20625;-65
2023/03/13 12:35:14;;;;;;;17.17;2.30;;;21.90;71.60;;;;;;5014877;28;20192;-65
2023/03/13 12:37:54;;;;;;;18.97;2.33;;;22.00;71.60;;;;;;5014342;28;20635;-76
2023/03/13 12:40:48;;;;;;;13.73;2.30;;;21.90;71.60;;;;;;5006612;28;20671;-74
2023/03/13 12:43:18;;;;;;;12.77;2.30;;;21.90;71.80;;;;;;4992967;28;20256;-75
2023/03/13 12:45:57;;;;;;;10.53;2.23;;;21.90;72.10;;;;;;4996339;28;20277;-76
2023/03/13 12:49:01;;;;;;;11.37;1.97;;;21.90;72.10;;;;;;4993721;28;20188;-76
2023/03/13 12:52:02;;;;;;;7.67;2.20;;;21.90;72.20;;;;;;4984183;28;20226;-73
2023/03/13 12:54:47;;;;;;;7.37;2.10;;;21.90;72.40;;;;;;4994722;28;20197;-75
2023/03/13 12:57:29;;;;;;;14.37;2.90;;;21.90;72.60;;;;;;4993114;28;20178;-76
2023/03/13 13:00:05;;;;;;;11.70;2.30;;;21.90;72.60;;;;;;4993473;28;20582;-71
2023/03/13 13:02:32;;;;;;;13.67;2.03;;;21.90;72.60;;;;;;4981775;28;20162;-75
2023/03/13 13:05:01;;;;;;;11.80;2.00;;;21.90;72.80;;;;;;4993849;28;20178;-76
2023/03/13 13:07:35;;;;;;;10.53;2.60;;;21.90;73.10;;;;;;4982110;28;20178;-75
2023/03/13 13:10:12;;;;;;;13.50;2.23;;;21.90;73.00;;;;;;4992953;28;20259;-73